Time;durP1;ratioP1;P1;durP2;ratioP2;P2;SDS_P1;SDS_P2;PMS_P1;PMS_P2;Temp;Humidity;BMP_temperature;BMP_pressure;BME280_temperature;BME280_humidity;BME280_pressure;Samples;Min_cycle;Max_cycle;Signal;HPM_P1;HPM_P2
2022/03/08 00:01:33;;;;;;;29.33;19.25;;;;;;;4.40;44.93;101243.09;5032427;28;20420;-61
2022/03/08 00:04:00;;;;;;;28.88;18.95;;;;;;;4.26;45.10;101240.00;5043723;28;20054;-61
2022/03/08 00:06:28;;;;;;;29.88;19.00;;;;;;;4.16;45.63;101239.06;5044979;28;20073;-61
2022/03/08 00:08:55;;;;;;;31.30;19.20;;;;;;;4.22;45.45;101229.88;5039228;28;20049;-61
2022/03/08 00:11:23;;;;;;;28.92;18.92;;;;;;;4.43;45.28;101227.03;5058295;28;20041;-61
2022/03/08 00:13:51;;;;;;;30.30;18.95;;;;;;;4.67;44.51;101230.25;5054706;28;20645;-62
2022/03/08 00:16:19;;;;;;;36.00;18.08;;;;;;;4.25;45.00;101232.88;5058274;28;20053;-62
2022/03/08 00:18:48;;;;;;;29.83;18.77;;;;;;;4.14;45.65;101227.59;5055701;28;20504;-61
2022/03/08 00:21:17;;;;;;;31.30;19.48;;;;;;;4.01;46.05;101228.84;5047599;28;20059;-62
2022/03/08 00:23:46;;;;;;;28.98;18.33;;;;;;;4.08;46.00;101231.38;5044979;28;20428;-62
2022/03/08 00:26:13;;;;;;;32.50;18.30;;;;;;;4.07;45.97;101227.81;5047746;28;20156;-62
2022/03/08 00:28:41;;;;;;;27.88;18.65;;;;;;;4.39;45.31;101227.84;5051545;28;20061;-61
2022/03/08 00:31:08;;;;;;;29.70;18.65;;;;;;;4.41;45.59;101225.69;5046309;28;20053;-62
2022/03/08 00:33:35;;;;;;;29.85;18.98;;;;;;;4.23;45.71;101229.59;5043859;28;20048;-62
2022/03/08 00:36:03;;;;;;;30.77;19.25;;;;;;;4.19;45.66;101225.75;5049744;28;20060;-61
2022/03/08 00:38:31;;;;;;;32.03;19.25;;;;;;;4.08;46.20;101232.19;5025414;28;20045;-62
2022/03/08 00:41:00;;;;;;;29.17;19.10;;;;;;;3.87;46.45;101226.81;5051264;28;20060;-62
2022/03/08 00:43:27;;;;;;;33.10;19.77;;;;;;;4.11;45.74;101228.97;5056997;28;20052;-62
2022/03/08 00:45:54;;;;;;;30.85;18.60;;;;;;;4.12;45.65;101222.41;5042353;28;20061;-61
2022/03/08 00:48:23;;;;;;;30.10;19.13;;;;;;;4.32;45.56;101225.31;5054430;28;20052;-63
2022/03/08 00:50:50;;;;;;;28.35;19.60;;;;;;;3.81;46.42;101225.91;5044249;28;20060;-62
2022/03/08 00:53:18;;;;;;;31.77;20.75;;;;;;;3.72;46.46;101223.88;5048582;28;20049;-61
2022/03/08 00:55:45;;;;;;;29.45;19.05;;;;;;;3.84;46.16;101214.50;5040285;28;20045;-62
2022/03/08 00:58:13;;;;;;;29.27;20.10;;;;;;;3.74;46.87;101224.47;5056782;28;20045;-62
2022/03/08 01:00:41;;;;;;;31.73;19.45;;;;;;;3.67;46.86;101224.69;5054042;28;20057;-63
2022/03/08 01:03:09;;;;;;;28.83;18.27;;;;;;;3.88;46.20;101221.09;5046072;28;20052;-62
2022/03/08 01:05:38;;;;;;;31.65;19.00;;;;;;;3.82;46.58;101224.03;5038336;28;20045;-62
2022/03/08 01:08:06;;;;;;;31.27;19.25;;;;;;;3.72;46.82;101223.88;5037346;28;20619;-61
2022/03/08 01:10:33;;;;;;;32.60;20.98;;;;;;;3.50;47.27;101218.50;5049429;28;20053;-61
2022/03/08 01:13:03;;;;;;;29.30;19.27;;;;;;;3.44;47.45;101216.78;5046850;28;20045;-63
2022/03/08 01:15:31;;;;;;;28.73;19.13;;;;;;;3.66;47.35;101214.03;5042425;28;20427;-62
2022/03/08 01:17:59;;;;;;;29.67;19.08;;;;;;;3.56;47.28;101203.03;5057251;28;20045;-62
2022/03/08 01:20:26;;;;;;;33.28;19.95;;;;;;;3.57;47.43;101204.66;5056620;28;20061;-61
2022/03/08 01:22:54;;;;;;;29.20;19.45;;;;;;;3.77;46.92;101205.72;5044297;28;20513;-61
2022/03/08 01:25:22;;;;;;;32.40;19.15;;;;;;;3.65;47.02;101210.47;5050424;28;20054;-61
2022/03/08 01:27:52;;;;;;;29.13;19.85;;;;;;;3.60;47.48;101204.97;5048720;28;20060;-61
2022/03/08 01:30:21;;;;;;;27.48;18.85;;;;;;;3.59;47.45;101214.25;5042686;28;20439;-61
2022/03/08 01:32:50;;;;;;;28.40;19.23;;;;;;;3.57;47.28;101207.41;5043377;28;20052;-62
2022/03/08 01:35:18;;;;;;;31.30;19.98;;;;;;;3.58;47.38;101204.41;5055259;28;20045;-62
2022/03/08 01:37:46;;;;;;;35.05;19.98;;;;;;;3.72;47.08;101202.94;5035819;28;20408;-62
2022/03/08 01:40:15;;;;;;;31.27;19.83;;;;;;;3.64;47.14;101210.75;5041007;28;20068;-62
2022/03/08 01:42:46;;;;;;;31.70;20.85;;;;;;;3.73;47.19;101201.84;5048127;28;20048;-61
2022/03/08 01:45:19;;;;;;;29.80;19.23;;;;;;;3.84;46.95;101200.88;5048717;28;20053;-62
2022/03/08 01:47:47;;;;;;;32.67;19.45;;;;;;;3.45;47.86;101202.09;5050502;28;20056;-62
2022/03/08 01:50:15;;;;;;;31.80;20.60;;;;;;;3.51;48.04;101201.06;5056432;28;20047;-62
2022/03/08 01:52:43;;;;;;;34.42;20.25;;;;;;;3.48;47.62;101196.13;5056123;28;20055;-61
2022/03/08 01:55:12;;;;;;;30.05;19.20;;;;;;;3.39;48.03;101197.66;5045984;28;20050;-61
2022/03/08 01:57:39;;;;;;;30.63;19.15;;;;;;;3.38;48.20;101201.47;5048921;28;20064;-61
2022/03/08 02:00:11;;;;;;;32.70;20.20;;;;;;;3.47;48.18;101189.84;5046252;28;20060;-61
2022/03/08 02:02:40;;;;;;;34.00;20.58;;;;;;;3.68;47.74;101195.53;5051811;28;20149;-61
2022/03/08 02:05:09;;;;;;;31.10;20.25;;;;;;;3.57;47.86;101191.88;5043895;28;20059;-61
2022/03/08 02:07:37;;;;;;;35.67;19.58;;;;;;;3.45;48.16;101185.75;5048284;28;20053;-61
2022/03/08 02:10:05;;;;;;;30.08;19.85;;;;;;;3.38;48.16;101191.38;5036963;28;20068;-61
2022/03/08 02:12:33;;;;;;;33.33;20.00;;;;;;;3.37;48.15;101189.75;5047687;28;20049;-61
2022/03/08 02:15:15;;;;;;;31.23;20.17;;;;;;;3.36;48.35;101188.09;5047263;28;20060;-66
2022/03/08 02:17:43;;;;;;;33.85;21.58;;;;;;;3.36;48.25;101193.53;5041471;28;20523;-61
2022/03/08 02:20:11;;;;;;;33.55;19.58;;;;;;;3.18;48.65;101185.72;5041273;28;20060;-62
2022/03/08 02:22:42;;;;;;;30.48;20.10;;;;;;;3.30;48.64;101186.41;5040254;28;20542;-62
2022/03/08 02:25:10;;;;;;;31.38;21.00;;;;;;;3.33;48.70;101176.88;5049112;28;20049;-61
2022/03/08 02:27:42;;;;;;;30.33;20.45;;;;;;;3.28;48.86;101185.00;5035701;28;20060;-62
2022/03/08 02:30:10;;;;;;;32.88;20.13;;;;;;;3.55;47.81;101179.59;5048082;28;20053;-61
2022/03/08 02:32:38;;;;;;;29.52;20.25;;;;;;;3.31;48.52;101179.84;5040649;28;20500;-61
2022/03/08 02:35:26;;;;;;;30.77;20.27;;;;;;;3.47;48.52;101170.78;5042830;28;20061;-61
2022/03/08 02:37:59;;;;;;;33.40;21.00;;;;;;;3.47;48.26;101173.53;5041580;28;20049;-62
2022/03/08 02:40:33;;;;;;;32.20;19.20;;;;;;;3.32;48.74;101170.63;5035412;28;20072;-61
2022/03/08 02:43:02;;;;;;;33.05;20.63;;;;;;;3.34;48.76;101170.38;5036820;28;20057;-61
2022/03/08 02:45:29;;;;;;;30.15;20.63;;;;;;;3.53;48.50;101163.50;5041457;28;20060;-62
2022/03/08 02:47:56;;;;;;;31.50;21.23;;;;;;;3.47;48.05;101158.28;5053833;28;20057;-61
2022/03/08 02:50:24;;;;;;;31.80;20.50;;;;;;;3.29;48.64;101164.88;5046992;28;20052;-61
2022/03/08 02:52:53;;;;;;;34.65;20.50;;;;;;;3.32;48.74;101150.75;5044176;28;20504;-61
2022/03/08 02:55:24;;;;;;;33.30;20.73;;;;;;;3.55;48.33;101155.91;5048650;28;20051;-61
2022/03/08 02:57:52;;;;;;;31.92;20.08;;;;;;;3.66;47.51;101152.19;5035498;28;20049;-61
2022/03/08 03:00:21;;;;;;;30.85;20.70;;;;;;;3.08;49.01;101152.94;5048565;28;20152;-62
2022/03/08 03:02:50;;;;;;;31.10;20.10;;;;;;;3.10;49.16;101161.63;5046778;28;20057;-62
2022/03/08 03:05:18;;;;;;;35.92;21.15;;;;;;;2.85;49.85;101155.06;5038926;28;20048;-62
2022/03/08 03:07:45;;;;;;;32.58;21.00;;;;;;;2.99;49.67;101151.72;5047207;28;20064;-63
2022/03/08 03:10:16;;;;;;;31.02;20.63;;;;;;;3.11;49.35;101154.31;5035933;28;20053;-62
2022/03/08 03:12:44;;;;;;;31.30;20.23;;;;;;;3.30;49.41;101150.19;5042961;28;20500;-62
2022/03/08 03:15:13;;;;;;;31.33;20.45;;;;;;;3.20;49.11;101142.72;5055473;28;20063;-62
2022/03/08 03:17:41;;;;;;;;;;;;;;;3.25;49.11;101137.34;5054086;28;20051;-63
2022/03/08 03:20:10;;;;;;;33.63;20.60;;;;;;;3.25;49.01;101140.06;5042374;28;19928;-62
2022/03/08 03:22:38;;;;;;;30.75;19.90;;;;;;;2.97;49.77;101137.53;5039971;28;20049;-61
2022/03/08 03:25:06;;;;;;;33.15;21.20;;;;;;;2.99;49.86;101132.69;5045346;28;20046;-61
2022/03/08 03:27:33;;;;;;;32.33;20.15;;;;;;;3.11;49.45;101121.66;5035007;28;20408;-61
2022/03/08 03:30:02;;;;;;;33.97;21.20;;;;;;;3.13;49.50;101128.50;5054824;28;20057;-62
2022/03/08 03:32:30;;;;;;;34.80;21.35;;;;;;;3.07;49.68;101126.78;5036400;28;20057;-61
2022/03/08 03:34:57;;;;;;;30.92;20.98;;;;;;;2.97;49.42;101120.38;5034816;28;20053;-62
2022/03/08 03:37:24;;;;;;;33.17;21.80;;;;;;;2.99;49.76;101121.78;5039151;28;20045;-62
2022/03/08 03:39:52;;;;;;;32.72;21.17;;;;;;;2.91;50.66;101119.50;5043085;28;20841;-61
2022/03/08 03:42:19;;;;;;;35.72;20.65;;;;;;;2.99;50.46;101118.25;5043873;28;20100;-62
2022/03/08 03:44:46;;;;;;;38.67;22.25;;;;;;;3.15;49.68;101122.78;5031715;28;20046;-62
2022/03/08 03:47:14;;;;;;;33.63;21.20;;;;;;;3.06;49.79;101121.59;5039058;28;20053;-62
2022/03/08 03:49:41;;;;;;;31.52;20.65;;;;;;;2.98;49.54;101111.16;5054437;28;20400;-62
2022/03/08 03:52:08;;;;;;;34.83;21.73;;;;;;;2.95;49.76;101117.09;5053707;28;20055;-62
2022/03/08 03:54:36;;;;;;;33.80;21.52;;;;;;;2.71;50.69;101111.09;5053437;28;20053;-62
2022/03/08 03:57:03;;;;;;;32.03;21.40;;;;;;;2.85;50.44;101127.84;5041709;28;20137;-62
2022/03/08 03:59:30;;;;;;;33.40;21.42;;;;;;;2.87;50.78;101120.28;5054343;28;20052;-61
2022/03/08 04:01:58;;;;;;;35.65;21.45;;;;;;;2.95;50.59;101123.38;5041938;28;20056;-61
2022/03/08 04:04:25;;;;;;;32.78;21.45;;;;;;;2.91;50.55;101122.22;5041229;28;20053;-61
2022/03/08 04:06:53;;;;;;;33.15;20.77;;;;;;;3.03;50.16;101120.19;5044023;28;20065;-61
2022/03/08 04:09:21;;;;;;;38.40;23.08;;;;;;;3.00;50.18;101117.19;5036700;28;20044;-62
2022/03/08 04:11:48;;;;;;;41.53;22.75;;;;;;;3.04;50.07;101126.47;5047543;28;20073;-61
2022/03/08 04:14:15;;;;;;;33.90;20.40;;;;;;;3.00;50.06;101120.69;5039442;28;20046;-61
2022/03/08 04:16:43;;;;;;;34.30;21.35;;;;;;;2.90;50.26;101126.03;5052617;28;20068;-61
2022/03/08 04:19:10;;;;;;;39.03;23.00;;;;;;;3.03;50.34;101119.38;5039813;28;20542;-61
2022/03/08 04:21:37;;;;;;;35.80;22.63;;;;;;;3.05;50.14;101119.97;5046973;28;20642;-64
2022/03/08 04:24:05;;;;;;;36.22;22.60;;;;;;;2.86;50.79;101124.88;5056490;28;20496;-62
2022/03/08 04:26:32;;;;;;;35.20;22.27;;;;;;;2.95;50.73;101123.38;5049535;28;20057;-61
2022/03/08 04:29:00;;;;;;;35.45;22.15;;;;;;;3.17;50.12;101115.19;5053152;28;20049;-61
2022/03/08 04:31:27;;;;;;;32.70;21.48;;;;;;;2.90;50.13;101117.88;5048572;28;20053;-62
2022/03/08 04:33:54;;;;;;;38.33;22.27;;;;;;;2.80;50.38;101116.91;5050087;28;20057;-61
2022/03/08 04:36:22;;;;;;;36.17;21.48;;;;;;;2.75;50.77;101119.56;5047917;28;20045;-63
2022/03/08 04:38:54;;;;;;;35.97;22.85;;;;;;;2.72;50.86;101114.66;5057764;28;20056;-63
2022/03/08 04:41:21;;;;;;;33.28;21.20;;;;;;;2.66;50.72;101112.91;5056735;28;20053;-62
2022/03/08 04:43:49;;;;;;;40.75;22.52;;;;;;;2.93;50.90;101103.75;5039446;28;20044;-63
2022/03/08 04:46:16;;;;;;;35.05;21.30;;;;;;;2.82;50.55;101110.16;5037139;28;20531;-62
2022/03/08 04:48:44;;;;;;;36.70;21.63;;;;;;;2.65;51.05;101105.84;5056543;28;20051;-61
2022/03/08 04:51:11;;;;;;;36.80;21.50;;;;;;;2.50;51.54;101109.16;5041286;28;20054;-63
2022/03/08 04:53:39;;;;;;;39.30;22.75;;;;;;;2.70;51.12;101108.63;5047856;28;20063;-62
2022/03/08 04:56:06;;;;;;;35.30;22.42;;;;;;;2.49;52.00;101118.41;5038562;28;20048;-62
2022/03/08 04:58:33;;;;;;;38.75;21.65;;;;;;;2.59;51.66;101106.84;5045512;28;20056;-62
2022/03/08 05:01:01;;;;;;;34.67;21.42;;;;;;;2.80;50.72;101106.88;5056213;28;20059;-62
2022/03/08 05:03:28;;;;;;;38.28;22.38;;;;;;;2.74;51.21;101107.03;5056447;28;20055;-61
2022/03/08 05:05:56;;;;;;;34.97;21.92;;;;;;;2.76;51.17;101104.88;5039285;28;20046;-61
2022/03/08 05:08:24;;;;;;;36.08;22.33;;;;;;;2.58;51.24;101103.28;5047738;28;20041;-62
2022/03/08 05:10:51;;;;;;;37.22;21.83;;;;;;;2.67;51.47;101099.06;5050379;28;20052;-61
2022/03/08 05:13:19;;;;;;;38.40;21.75;;;;;;;2.70;51.40;101106.75;5045686;28;20060;-61
2022/03/08 05:15:48;;;;;;;37.22;22.73;;;;;;;2.71;51.03;101100.22;5042872;28;20128;-62
2022/03/08 05:18:17;;;;;;;38.08;23.17;;;;;;;2.61;51.74;101101.97;5056955;28;20530;-61
2022/03/08 05:20:44;;;;;;;38.40;22.08;;;;;;;2.60;51.59;101101.16;5037747;28;20530;-61
2022/03/08 05:23:11;;;;;;;35.03;21.45;;;;;;;2.62;51.49;101103.59;5068679;28;20057;-62
2022/03/08 05:25:39;;;;;;;36.50;21.98;;;;;;;2.72;51.37;101101.84;5048657;28;20049;-61
2022/03/08 05:28:06;;;;;;;34.58;22.20;;;;;;;2.68;51.35;101098.00;5048537;28;20060;-61
2022/03/08 05:30:34;;;;;;;36.92;22.60;;;;;;;2.82;51.27;101093.84;5051874;28;20068;-61
2022/03/08 05:33:01;;;;;;;36.63;22.27;;;;;;;2.66;51.29;101102.03;5056638;28;20539;-61
2022/03/08 05:35:28;;;;;;;36.13;21.90;;;;;;;2.65;51.56;101097.69;5026597;28;20042;-62
2022/03/08 05:37:55;;;;;;;35.30;23.10;;;;;;;2.74;51.22;101096.16;5037489;28;20061;-61
2022/03/08 05:40:23;;;;;;;36.80;22.52;;;;;;;2.81;51.20;101096.78;5042696;28;20049;-61
2022/03/08 05:42:50;;;;;;;38.20;22.75;;;;;;;2.72;51.36;101096.41;5035055;28;20049;-61
2022/03/08 05:45:17;;;;;;;38.30;23.40;;;;;;;2.74;51.44;101093.44;5035120;28;20045;-61
2022/03/08 05:47:45;;;;;;;39.70;23.42;;;;;;;2.82;51.25;101093.84;5042405;28;20080;-61
2022/03/08 05:50:12;;;;;;;37.28;23.20;;;;;;;2.85;51.12;101095.22;5036105;28;20056;-61
2022/03/08 05:52:40;;;;;;;37.45;23.30;;;;;;;2.67;51.43;101093.63;5035034;28;20056;-61
2022/03/08 05:55:08;;;;;;;37.25;23.10;;;;;;;2.89;50.99;101094.47;5045481;28;20053;-62
2022/03/08 05:57:35;;;;;;;39.13;24.05;;;;;;;2.70;51.18;101097.75;5035145;28;20057;-61
2022/03/08 06:00:05;;;;;;;34.45;23.10;;;;;;;2.76;51.18;101094.84;5036012;28;20053;-62
2022/03/08 06:02:37;;;;;;;35.55;22.40;;;;;;;2.96;51.08;101099.72;5045170;28;20048;-62
2022/03/08 06:05:06;;;;;;;38.97;23.45;;;;;;;2.94;50.99;101104.56;5037943;28;20072;-62
2022/03/08 06:07:33;;;;;;;35.25;22.85;;;;;;;2.55;51.78;101114.69;5035991;28;20060;-61
2022/03/08 06:10:00;;;;;;;37.95;23.70;;;;;;;2.48;52.13;101107.75;5035973;28;20072;-61
2022/03/08 06:12:28;;;;;;;36.63;22.58;;;;;;;2.72;51.73;101111.94;5035645;28;20049;-63
2022/03/08 06:14:55;;;;;;;40.15;23.13;;;;;;;2.65;51.86;101109.38;5035630;28;20412;-62
2022/03/08 06:17:23;;;;;;;37.83;22.92;;;;;;;2.57;52.01;101106.25;5042962;28;20049;-62
2022/03/08 06:19:50;;;;;;;36.97;23.60;;;;;;;2.54;52.39;101112.22;5035809;28;20049;-61
2022/03/08 06:22:17;;;;;;;35.88;22.55;;;;;;;2.62;52.10;101106.31;5035833;28;20045;-62
2022/03/08 06:24:45;;;;;;;39.35;23.98;;;;;;;2.65;51.79;101103.94;5035334;28;20053;-61
2022/03/08 06:27:13;;;;;;;38.88;23.63;;;;;;;2.43;52.49;101118.56;5036537;28;21266;-63
2022/03/08 06:29:40;;;;;;;38.95;24.25;;;;;;;2.59;52.13;101110.41;5035346;28;20056;-62
2022/03/08 06:32:08;;;;;;;39.15;23.52;;;;;;;2.54;52.21;101114.94;5033125;28;20053;-61
2022/03/08 06:34:35;;;;;;;40.88;24.63;;;;;;;2.36;52.69;101115.22;5066633;28;20060;-63
2022/03/08 06:37:03;;;;;;;38.75;23.65;;;;;;;2.56;52.48;101110.91;5033452;28;20052;-62
2022/03/08 06:39:30;;;;;;;41.65;23.95;;;;;;;2.46;52.36;101115.38;5044599;28;20052;-62
2022/03/08 06:41:57;;;;;;;40.40;23.73;;;;;;;2.50;52.46;101114.59;5042221;28;20049;-62
2022/03/08 06:44:25;;;;;;;38.22;23.35;;;;;;;2.42;52.86;101117.78;5045428;28;20056;-62
2022/03/08 06:46:52;;;;;;;37.45;24.02;;;;;;;2.49;52.37;101123.84;5048759;28;20053;-62
2022/03/08 06:49:20;;;;;;;37.53;23.52;;;;;;;2.52;52.51;101122.50;5044568;28;20056;-61
2022/03/08 06:51:47;;;;;;;37.75;24.30;;;;;;;2.81;52.09;101118.53;5033033;28;20477;-62
2022/03/08 06:54:18;;;;;;;37.45;23.27;;;;;;;2.58;52.23;101118.81;5034886;28;20057;-61
2022/03/08 06:56:45;;;;;;;42.58;24.25;;;;;;;2.17;53.72;101130.97;5043089;28;20037;-62
2022/03/08 06:59:13;;;;;;;40.55;24.80;;;;;;;2.37;53.55;101125.03;5036433;28;20048;-63
2022/03/08 07:01:40;;;;;;;39.90;24.80;;;;;;;2.29;53.38;101121.66;5038694;28;20064;-62
2022/03/08 07:04:08;;;;;;;42.65;24.30;;;;;;;2.27;53.50;101118.34;5057887;28;20053;-62
2022/03/08 07:06:35;;;;;;;45.35;25.67;;;;;;;2.02;54.73;101114.44;5043529;28;20045;-63
2022/03/08 07:09:03;;;;;;;40.38;23.92;;;;;;;2.28;53.79;101122.72;5040698;28;20049;-61
2022/03/08 07:11:31;;;;;;;42.30;24.88;;;;;;;2.54;53.23;101114.94;5070784;28;20057;-61
2022/03/08 07:13:58;;;;;;;40.72;23.73;;;;;;;2.55;52.58;101106.53;5040222;28;20077;-62
2022/03/08 07:16:25;;;;;;;42.40;24.60;;;;;;;2.54;52.96;101112.22;5033956;28;20037;-62
2022/03/08 07:18:53;;;;;;;44.22;25.90;;;;;;;2.63;52.81;101116.16;5024981;28;20056;-62
2022/03/08 07:21:20;;;;;;;43.15;25.40;;;;;;;2.81;51.89;101121.25;5039258;28;20049;-62
2022/03/08 07:23:48;;;;;;;43.53;25.05;;;;;;;2.71;52.12;101115.69;5034740;28;20045;-62
2022/03/08 07:26:15;;;;;;;40.17;24.50;;;;;;;2.79;52.11;101123.44;5029094;28;20074;-64
2022/03/08 07:28:42;;;;;;;40.95;24.65;;;;;;;2.77;52.08;101115.50;5016809;28;20060;-61
2022/03/08 07:31:12;;;;;;;46.80;26.65;;;;;;;2.59;52.75;101131.31;5030792;28;20049;-61
2022/03/08 07:33:41;;;;;;;47.35;25.67;;;;;;;2.44;53.15;101134.63;5038272;28;20433;-62
2022/03/08 07:36:08;;;;;;;41.03;25.65;;;;;;;2.69;52.79;101135.00;5027453;28;20053;-61
2022/03/08 07:38:36;;;;;;;40.72;23.98;;;;;;;2.83;52.60;101143.59;5032570;28;20068;-61
2022/03/08 07:41:04;;;;;;;43.33;25.83;;;;;;;2.81;52.30;101152.03;5032292;28;20060;-62
2022/03/08 07:43:34;;;;;;;42.55;25.23;;;;;;;2.78;52.31;101151.69;5023507;28;20049;-62
2022/03/08 07:46:06;;;;;;;44.05;24.92;;;;;;;2.78;52.83;101152.53;5032651;28;20041;-62
2022/03/08 07:48:35;;;;;;;45.47;25.65;;;;;;;2.62;53.10;101169.69;5025860;28;20061;-62
2022/03/08 07:51:03;;;;;;;45.25;25.40;;;;;;;2.80;52.10;101146.84;5030926;28;20539;-60
2022/03/08 07:53:31;;;;;;;41.30;25.23;;;;;;;2.72;52.44;101152.72;5033071;28;20052;-63
2022/03/08 07:55:58;;;;;;;42.28;24.40;;;;;;;2.66;52.49;101146.38;5032445;28;20050;-61
2022/03/08 07:58:25;;;;;;;42.30;25.60;;;;;;;2.93;51.84;101149.19;5037207;28;20053;-63
2022/03/08 08:00:53;;;;;;;41.40;25.13;;;;;;;2.76;52.04;101148.41;5037954;28;20503;-63
2022/03/08 08:03:21;;;;;;;44.85;27.08;;;;;;;2.91;51.61;101151.34;5037551;28;20437;-62
2022/03/08 08:05:49;;;;;;;45.13;25.85;;;;;;;2.98;51.73;101154.69;5038321;28;20045;-62
2022/03/08 08:08:17;;;;;;;40.05;25.83;;;;;;;3.04;51.54;101157.22;5029697;28;20065;-63
2022/03/08 08:10:48;;;;;;;42.05;26.13;;;;;;;3.35;51.00;101150.22;5037284;28;20057;-64
2022/03/08 08:13:16;;;;;;;40.90;24.70;;;;;;;3.22;50.75;101146.03;5035290;28;20049;-64
2022/03/08 08:15:44;;;;;;;39.50;24.80;;;;;;;3.00;51.08;101150.63;5033764;28;20053;-64
2022/03/08 08:18:18;;;;;;;43.83;24.50;;;;;;;3.35;55.96;101147.50;5028919;28;20440;-64
2022/03/08 08:20:45;;;;;;;42.10;25.60;;;;;;;3.67;54.64;101142.97;5038021;28;20057;-65
2022/03/08 08:23:12;;;;;;;39.95;25.38;;;;;;;3.71;50.85;101146.00;5037611;28;20512;-64
2022/03/08 08:25:40;;;;;;;44.65;26.05;;;;;;;3.43;51.08;101150.59;5039696;28;20046;-64
2022/03/08 08:28:07;;;;;;;43.53;27.75;;;;;;;3.11;51.72;101149.69;5030038;28;20053;-64
2022/03/08 08:30:34;;;;;;;42.83;26.83;;;;;;;3.14;51.96;101154.63;5027035;28;20068;-64
2022/03/08 08:33:02;;;;;;;45.47;26.95;;;;;;;3.21;52.06;101144.38;5036119;28;20057;-63
2022/03/08 08:35:29;;;;;;;41.95;26.17;;;;;;;3.38;51.79;101147.81;5037557;28;20060;-64
2022/03/08 08:37:57;;;;;;;44.80;27.05;;;;;;;3.39;51.71;101154.09;5037621;28;20050;-64
2022/03/08 08:40:24;;;;;;;49.08;27.55;;;;;;;3.68;51.06;101157.41;5037391;28;20045;-64
2022/03/08 08:42:52;;;;;;;42.63;26.90;;;;;;;3.97;50.11;101156.03;5035958;28;20044;-65
2022/03/08 08:45:19;;;;;;;43.42;27.95;;;;;;;3.68;50.38;101150.03;5034503;28;20050;-64
2022/03/08 08:47:46;;;;;;;48.53;28.13;;;;;;;3.88;50.45;101157.59;5036407;28;20041;-63
2022/03/08 08:50:14;;;;;;;40.67;26.42;;;;;;;4.03;49.87;101147.63;5034307;28;20053;-62
2022/03/08 08:52:41;;;;;;;46.28;28.65;;;;;;;3.91;49.98;101159.78;5037842;28;20060;-64
2022/03/08 08:55:09;;;;;;;43.70;25.92;;;;;;;4.00;50.12;101158.25;5036821;28;20049;-63
2022/03/08 08:57:37;;;;;;;45.38;28.27;;;;;;;4.41;49.22;101161.03;5021823;28;20408;-63
2022/03/08 09:00:08;;;;;;;47.35;26.35;;;;;;;4.18;49.60;101163.31;5038446;28;20515;-64
2022/03/08 09:02:35;;;;;;;45.95;28.15;;;;;;;4.37;49.55;101157.19;5036302;28;20066;-63
2022/03/08 09:05:03;;;;;;;47.08;29.00;;;;;;;4.59;49.38;101157.88;5038016;28;20058;-63
2022/03/08 09:07:31;;;;;;;44.80;27.98;;;;;;;4.52;49.16;101154.56;5033191;28;20463;-63
2022/03/08 09:09:58;;;;;;;46.55;27.55;;;;;;;4.56;48.95;101155.69;5034809;28;20353;-64
2022/03/08 09:12:25;;;;;;;43.72;28.20;;;;;;;4.78;48.34;101150.06;5037118;28;20063;-63
2022/03/08 09:14:53;;;;;;;52.80;28.15;;;;;;;4.72;48.96;101159.31;5032823;28;20049;-63
2022/03/08 09:17:20;;;;;;;48.80;28.35;;;;;;;4.74;48.17;101148.16;5032609;28;20053;-64
2022/03/08 09:19:48;;;;;;;45.08;26.92;;;;;;;4.76;48.65;101149.50;5067172;28;20045;-62
2022/03/08 09:22:15;;;;;;;56.72;28.15;;;;;;;4.84;48.29;101146.28;5034909;28;20073;-63
2022/03/08 09:24:42;;;;;;;43.75;27.65;;;;;;;4.80;48.96;101152.53;5036556;28;20053;-64
2022/03/08 09:27:10;;;;;;;45.28;28.77;;;;;;;4.77;48.74;101144.88;5035388;28;20041;-64
2022/03/08 09:29:37;;;;;;;50.13;28.20;;;;;;;4.75;48.83;101141.59;5035908;28;20136;-64
2022/03/08 09:32:05;;;;;;;47.45;28.55;;;;;;;4.92;48.16;101139.50;5037651;28;20053;-63
2022/03/08 09:34:32;;;;;;;47.45;29.60;;;;;;;5.13;47.79;101139.31;5030604;28;20060;-65
2022/03/08 09:37:00;;;;;;;44.97;28.02;;;;;;;5.35;47.52;101126.28;5034049;28;20049;-62
2022/03/08 09:39:27;;;;;;;44.60;28.65;;;;;;;5.43;47.42;101130.41;5067539;28;20064;-64
2022/03/08 09:41:56;;;;;;;51.40;29.55;;;;;;;5.49;47.01;101132.88;5036094;28;20049;-64
2022/03/08 09:44:24;;;;;;;46.33;28.23;;;;;;;5.56;47.39;101122.50;5068114;28;20401;-63
2022/03/08 09:46:52;;;;;;;41.15;26.40;;;;;;;5.57;47.00;101118.69;5034913;28;20057;-64
2022/03/08 09:49:19;;;;;;;43.13;28.63;;;;;;;5.56;47.00;101127.16;5036083;28;20042;-63
2022/03/08 09:51:47;;;;;;;47.78;28.63;;;;;;;5.79;47.13;101128.56;5035197;28;20542;-63
2022/03/08 09:54:14;;;;;;;51.63;29.58;;;;;;;5.76;46.58;101127.19;5035455;28;20046;-63
2022/03/08 09:56:42;;;;;;;55.25;30.35;;;;;;;5.77;46.88;101126.09;5035951;28;20516;-63
2022/03/08 09:59:09;;;;;;;51.63;28.98;;;;;;;5.86;47.38;101131.88;5036500;28;20513;-64
2022/03/08 10:01:36;;;;;;;48.63;29.80;;;;;;;5.88;46.99;101135.97;5036006;28;20053;-63
2022/03/08 10:04:06;;;;;;;51.60;28.52;;;;;;;5.79;47.26;101129.38;5034651;28;20057;-63
2022/03/08 10:06:54;;;;;;;52.58;30.25;;;;;;;5.95;47.41;101128.31;5036477;28;20057;-63
2022/03/08 10:09:22;;;;;;;54.97;29.45;;;;;;;6.14;47.45;101123.94;5045990;28;20045;-64
2022/03/08 10:11:55;;;;;;;50.95;29.98;;;;;;;6.28;46.63;101118.72;5035296;28;20060;-64
2022/03/08 10:14:36;;;;;;;48.67;29.40;;;;;;;6.37;46.19;101114.34;5035364;28;20045;-63
2022/03/08 10:17:07;;;;;;;46.75;29.23;;;;;;;6.62;45.52;101112.41;5035827;28;20050;-63
2022/03/08 10:19:47;;;;;;;52.47;30.45;;;;;;;6.53;45.92;101097.66;5035966;28;20065;-63
2022/03/08 10:22:31;;;;;;;52.80;29.60;;;;;;;6.46;46.18;101101.75;5035119;28;20058;-63
2022/03/08 10:25:13;;;;;;;47.40;28.58;;;;;;;6.48;45.98;101102.31;5033069;28;20060;-63
2022/03/08 10:27:55;;;;;;;48.53;29.55;;;;;;;6.51;46.16;101097.09;5032809;28;20052;-64
2022/03/08 10:30:48;;;;;;;60.70;29.67;;;;;;;6.72;45.37;101095.13;5034762;28;20046;-64
2022/03/08 10:33:20;;;;;;;48.50;28.13;;;;;;;6.78;45.95;101094.00;5035488;28;20493;-65
2022/03/08 10:35:53;;;;;;;49.22;29.27;;;;;;;6.85;45.15;101089.06;5040884;28;20423;-64
2022/03/08 10:38:21;;;;;;;60.25;30.27;;;;;;;6.82;45.62;101086.88;5040668;28;20049;-64
2022/03/08 10:40:48;;;;;;;56.08;30.45;;;;;;;6.89;45.87;101092.84;5028405;28;20057;-64
2022/03/08 10:43:17;;;;;;;49.53;29.85;;;;;;;7.15;44.97;101090.84;5033741;28;20065;-63
2022/03/08 10:45:50;;;;;;;54.35;30.13;;;;;;;7.20;44.94;101094.34;5033944;28;20053;-64
2022/03/08 10:48:18;;;;;;;51.22;30.02;;;;;;;7.22;45.05;101088.63;5034917;28;20064;-65
2022/03/08 10:50:50;;;;;;;51.42;29.88;;;;;;;7.29;44.43;101086.34;5034988;28;20111;-65
2022/03/08 10:53:18;;;;;;;46.75;29.38;;;;;;;7.47;44.25;101086.53;5035553;28;20427;-64
2022/03/08 10:55:49;;;;;;;47.70;31.05;;;;;;;7.65;43.70;101080.38;5033699;28;20041;-64
2022/03/08 10:58:18;;;;;;;50.05;30.02;;;;;;;7.60;44.30;101080.41;5066373;28;20042;-63
2022/03/08 11:00:51;;;;;;;49.70;29.37;;;;;;;7.71;44.04;101068.28;5034307;28;20037;-64
2022/03/08 11:03:21;;;;;;;56.42;31.77;;;;;;;7.80;43.74;101063.00;5035183;28;20460;-65
2022/03/08 11:05:51;;;;;;;48.55;29.48;;;;;;;7.71;43.40;101064.72;5029090;28;20057;-65
2022/03/08 11:08:19;;;;;;;45.47;29.17;;;;;;;7.49;44.19;101064.31;5030213;28;20041;-65
2022/03/08 11:10:47;;;;;;;48.45;29.02;;;;;;;7.69;43.40;101055.94;5035609;28;20065;-67
2022/03/08 11:13:16;;;;;;;50.67;29.83;;;;;;;7.93;43.47;101054.91;5034489;28;20503;-64
2022/03/08 11:15:44;;;;;;;48.60;29.10;;;;;;;8.03;43.02;101051.28;5034812;28;20048;-65
2022/03/08 11:18:12;;;;;;;50.03;30.80;;;;;;;8.16;43.02;101047.84;5034930;28;20052;-64
2022/03/08 11:20:42;;;;;;;45.38;30.00;;;;;;;8.09;43.24;101044.63;5039381;28;20049;-65
2022/03/08 11:23:09;;;;;;;48.00;30.20;;;;;;;8.01;43.35;101048.00;5037296;28;20049;-65